createdAt,value
2022-08-27T00:01:43.054Z,35.96
2022-08-27T00:04:50.645Z,35.98
2022-08-27T00:07:55.210Z,36.00
2022-08-27T00:11:01.655Z,36.02
2022-08-27T00:14:08.199Z,36.01
2022-08-27T00:17:14.424Z,36.05
2022-08-27T00:20:43.099Z,36.12
2022-08-27T00:23:48.921Z,36.17
2022-08-27T00:26:57.471Z,36.20
2022-08-27T00:30:06.100Z,36.26
2022-08-27T00:33:11.676Z,36.30
2022-08-27T00:36:18.221Z,36.38
2022-08-27T00:39:24.480Z,36.42
2022-08-27T00:42:31.478Z,36.46
2022-08-27T00:45:38.481Z,36.49
2022-08-27T00:48:47.390Z,36.56
2022-08-27T00:51:53.959Z,36.61
2022-08-27T00:55:00.536Z,36.65
2022-08-27T00:58:17.445Z,36.69
2022-08-27T01:01:26.314Z,36.73
2022-08-27T01:04:34.383Z,36.80
2022-08-27T01:07:43.762Z,36.83
2022-08-27T01:10:52.340Z,36.84
2022-08-27T01:14:00.982Z,36.91
2022-08-27T01:17:13.377Z,36.94
2022-08-27T01:20:22.804Z,37.01
2022-08-27T01:24:09.118Z,37.08
2022-08-27T01:27:16.549Z,37.16
2022-08-27T01:30:22.978Z,37.25
2022-08-27T01:33:30.784Z,37.32
2022-08-27T01:36:35.711Z,37.39
2022-08-27T01:39:41.574Z,37.46
2022-08-27T01:42:54.494Z,37.52
2022-08-27T01:46:03.455Z,37.58
2022-08-27T01:49:11.541Z,37.64
2022-08-27T01:52:18.659Z,37.71
2022-08-27T01:55:26.345Z,37.77
2022-08-27T01:58:33.921Z,37.87
2022-08-27T02:01:39.679Z,37.92
2022-08-27T02:04:47.065Z,37.95
2022-08-27T02:07:54.040Z,38.02
2022-08-27T02:11:01.659Z,38.07
2022-08-27T02:14:12.926Z,38.13
2022-08-27T02:17:19.191Z,38.18
2022-08-27T02:20:29.189Z,38.24
2022-08-27T02:23:35.927Z,38.29
2022-08-27T02:26:42.195Z,38.36
2022-08-27T02:29:49.693Z,38.43
2022-08-27T02:32:56.695Z,38.47
2022-08-27T02:36:03.447Z,38.50
2022-08-27T02:39:09.506Z,38.54
2022-08-27T02:42:15.048Z,38.57
2022-08-27T02:45:21.333Z,38.64
2022-08-27T02:48:28.618Z,38.71
2022-08-27T02:51:33.752Z,38.73
2022-08-27T02:54:41.765Z,38.72
2022-08-27T02:57:50.473Z,38.78
2022-08-27T03:00:59.860Z,38.78
2022-08-27T03:04:05.579Z,38.85
2022-08-27T03:07:18.706Z,38.90
2022-08-27T03:10:21.793Z,38.91
2022-08-27T03:13:31.231Z,38.95
2022-08-27T03:16:36.882Z,38.96
2022-08-27T03:19:44.602Z,38.96
2022-08-27T03:22:50.147Z,38.96
2022-08-27T03:26:06.552Z,38.96
2022-08-27T03:29:12.732Z,38.97
2022-08-27T03:32:20.510Z,38.95
2022-08-27T03:35:29.565Z,38.93
2022-08-27T03:38:36.224Z,38.93
2022-08-27T03:41:54.111Z,38.91
2022-08-27T03:44:49.986Z,38.85
2022-08-27T03:47:59.375Z,38.83
2022-08-27T03:51:04.969Z,38.84
2022-08-27T03:54:10.819Z,38.79
2022-08-27T03:57:17.621Z,38.75
2022-08-27T04:00:24.953Z,38.74
2022-08-27T04:03:30.941Z,38.70
2022-08-27T04:06:36.397Z,38.67
2022-08-27T04:09:44.713Z,38.64
2022-08-27T04:12:50.926Z,38.62
2022-08-27T04:16:03.986Z,38.58
2022-08-27T04:19:22.915Z,38.55
2022-08-27T04:22:29.031Z,38.55
2022-08-27T04:25:35.760Z,38.54
2022-08-27T04:28:42.614Z,38.54
2022-08-27T04:31:50.692Z,38.51
2022-08-27T04:34:57.576Z,38.50
2022-08-27T04:38:04.457Z,38.49
2022-08-27T04:41:30.896Z,38.46
2022-08-27T04:44:37.987Z,38.44
2022-08-27T04:47:44.152Z,38.40
2022-08-27T04:50:49.785Z,38.37
2022-08-27T04:53:57.520Z,38.41
2022-08-27T04:57:05.511Z,38.41
2022-08-27T05:00:14.557Z,38.42
2022-08-27T05:03:21.925Z,38.42
2022-08-27T05:06:28.241Z,38.42
2022-08-27T05:09:34.135Z,38.42
2022-08-27T05:13:02.033Z,38.44
2022-08-27T05:16:17.946Z,38.42
2022-08-27T05:19:26.426Z,38.40
2022-08-27T05:22:32.297Z,38.40
2022-08-27T05:25:39.197Z,38.39
2022-08-27T05:28:44.622Z,38.37
2022-08-27T05:31:51.496Z,38.34
2022-08-27T05:34:58.074Z,38.27
2022-08-27T05:38:03.129Z,38.21
2022-08-27T05:41:23.727Z,38.17
2022-08-27T05:44:46.569Z,38.15
2022-08-27T05:47:44.867Z,38.07
2022-08-27T05:50:46.580Z,38.04
2022-08-27T05:53:53.175Z,38.03
2022-08-27T05:57:01.385Z,38.01
2022-08-27T06:00:27.565Z,38.03
2022-08-27T06:03:33.864Z,37.98
2022-08-27T06:06:42.219Z,37.96
2022-08-27T06:09:48.705Z,37.95
2022-08-27T06:12:57.020Z,37.93
2022-08-27T06:16:04.324Z,37.94
2022-08-27T06:19:12.885Z,37.90
2022-08-27T06:22:19.940Z,37.82
2022-08-27T06:25:25.963Z,37.74
2022-08-27T06:28:37.662Z,37.68
2022-08-27T06:31:44.469Z,37.60
2022-08-27T06:34:50.431Z,37.51
2022-08-27T06:37:56.753Z,37.44
2022-08-27T06:41:02.955Z,37.42
2022-08-27T06:44:09.469Z,37.37
2022-08-27T06:47:16.558Z,37.27
2022-08-27T06:50:28.938Z,37.22
2022-08-27T06:53:35.549Z,37.14
2022-08-27T06:56:40.800Z,37.11
2022-08-27T06:59:48.593Z,37.04
2022-08-27T07:02:54.576Z,36.96
2022-08-27T07:05:59.981Z,36.89
2022-08-27T07:09:05.857Z,36.81
2022-08-27T07:12:12.147Z,36.72
2022-08-27T07:15:21.748Z,36.68
2022-08-27T07:18:27.892Z,36.61
2022-08-27T07:21:33.329Z,36.46
2022-08-27T07:24:39.483Z,36.31
2022-08-27T07:27:46.254Z,36.17
2022-08-27T07:30:52.989Z,36.05
2022-08-27T07:33:53.410Z,35.96
2022-08-27T07:36:59.990Z,35.91
2022-08-27T07:40:06.672Z,35.85
2022-08-27T07:43:31.087Z,35.75
2022-08-27T07:46:40.091Z,35.62
2022-08-27T07:49:45.226Z,35.54
2022-08-27T07:52:53.197Z,35.44
2022-08-27T07:55:58.394Z,35.23
2022-08-27T07:59:06.446Z,35.09
2022-08-27T08:02:12.392Z,34.91
2022-08-27T08:05:20.995Z,34.81
2022-08-27T08:08:26.626Z,34.66
2022-08-27T08:11:33.670Z,34.53
2022-08-27T08:14:39.204Z,34.42
2022-08-27T08:17:47.310Z,34.26
2022-08-27T08:20:58.578Z,34.12
2022-08-27T08:24:04.094Z,34.04
2022-08-27T08:27:09.535Z,33.99
2022-08-27T08:30:09.362Z,33.86
2022-08-27T08:33:17.487Z,33.75
2022-08-27T08:36:27.168Z,33.57
2022-08-27T08:39:35.565Z,33.46
2022-08-27T08:42:59.424Z,33.30
2022-08-27T08:46:05.638Z,33.13
2022-08-27T08:49:13.459Z,32.95
2022-08-27T08:52:45.289Z,32.89
2022-08-27T08:56:17.074Z,32.77
2022-08-27T08:59:42.625Z,32.62
2022-08-27T09:02:49.114Z,32.49
2022-08-27T09:05:55.809Z,32.33
2022-08-27T09:09:02.023Z,32.17
2022-08-27T09:12:19.637Z,31.96
2022-08-27T09:15:40.039Z,31.82
2022-08-27T09:18:45.739Z,31.68
2022-08-27T09:22:32.027Z,31.49
2022-08-27T09:25:48.623Z,31.29
2022-08-27T09:29:14.426Z,31.08
2022-08-27T09:32:23.184Z,30.89
2022-08-27T09:35:33.549Z,30.73
2022-08-27T09:38:44.671Z,30.61
2022-08-27T09:42:00.912Z,30.45
2022-08-27T09:45:08.552Z,30.32
2022-08-27T09:48:26.635Z,30.18
2022-08-27T09:51:43.131Z,29.99
2022-08-27T09:55:01.544Z,29.81
2022-08-27T09:58:08.971Z,29.65
2022-08-27T10:01:21.733Z,29.46
2022-08-27T10:04:30.242Z,29.39
2022-08-27T10:08:14.606Z,29.24
2022-08-27T10:11:33.419Z,29.03
2022-08-27T10:14:46.683Z,28.79
2022-08-27T10:18:17.500Z,28.58
2022-08-27T10:21:55.537Z,28.36
2022-08-27T10:25:11.328Z,27.99
2022-08-27T10:29:07.604Z,27.99
2022-08-27T10:32:52.257Z,27.63
2022-08-27T10:36:06.141Z,27.63
2022-08-27T10:39:22.647Z,27.32
2022-08-27T10:42:45.630Z,27.32
2022-08-27T10:46:14.195Z,27.22
2022-08-27T10:49:27.479Z,27.06
2022-08-27T10:52:52.244Z,26.92
2022-08-27T10:56:03.676Z,26.73
2022-08-27T10:59:23.484Z,26.62
2022-08-27T11:02:42.659Z,26.48
2022-08-27T11:05:58.990Z,26.39
2022-08-27T11:09:14.930Z,26.18
2022-08-27T11:12:25.450Z,26.08
2022-08-27T11:15:42.839Z,25.86
2022-08-27T11:19:18.989Z,25.69
2022-08-27T11:22:36.515Z,25.60
2022-08-27T11:26:02.854Z,25.56
2022-08-27T11:29:15.856Z,25.50
2022-08-27T11:32:33.148Z,25.51
2022-08-27T11:35:46.607Z,25.47
2022-08-27T11:39:14.212Z,25.35
2022-08-27T11:42:45.143Z,25.21
2022-08-27T11:46:08.629Z,25.17
2022-08-27T11:49:16.285Z,25.24
2022-08-27T11:52:23.338Z,25.24
2022-08-27T11:55:46.164Z,25.15
2022-08-27T11:58:52.662Z,25.22
2022-08-27T12:02:00.215Z,25.14
2022-08-27T12:05:05.732Z,25.15
2022-08-27T12:08:12.280Z,25.11
2022-08-27T12:11:29.386Z,25.07
2022-08-27T12:14:53.024Z,25.04
2022-08-27T12:18:25.264Z,24.97
2022-08-27T12:22:03.110Z,24.94
2022-08-27T12:25:10.382Z,24.98
2022-08-27T12:28:18.742Z,24.98
2022-08-27T12:31:23.540Z,24.90
2022-08-27T12:34:38.328Z,24.87
2022-08-27T12:37:48.278Z,24.82
2022-08-27T12:41:19.129Z,24.80
2022-08-27T12:44:24.643Z,24.83
2022-08-27T12:47:30.545Z,24.79
2022-08-27T12:50:45.081Z,24.79
2022-08-27T12:53:57.395Z,24.72
2022-08-27T12:57:13.061Z,24.72
2022-08-27T13:00:32.904Z,24.67
2022-08-27T13:03:54.276Z,24.65
2022-08-27T13:07:01.083Z,24.66
2022-08-27T13:10:08.560Z,24.68
2022-08-27T13:13:31.207Z,24.65
2022-08-27T13:16:40.072Z,24.64
2022-08-27T13:19:54.353Z,24.72
2022-08-27T13:23:00.478Z,24.72
2022-08-27T13:26:18.799Z,24.73
2022-08-27T13:29:25.536Z,24.72
2022-08-27T13:32:31.844Z,24.75
2022-08-27T13:35:39.777Z,24.79
2022-08-27T13:38:50.351Z,24.77
2022-08-27T13:41:59.836Z,24.77
2022-08-27T13:45:05.232Z,24.80
2022-08-27T13:48:12.092Z,24.92
2022-08-27T13:51:19.212Z,24.96
2022-08-27T13:54:26.803Z,25.06
2022-08-27T13:57:45.566Z,25.11
2022-08-27T14:00:53.515Z,25.13
2022-08-27T14:04:07.049Z,25.21
2022-08-27T14:07:16.536Z,25.29
2022-08-27T14:10:34.839Z,25.34
2022-08-27T14:13:43.401Z,25.38
2022-08-27T14:16:48.685Z,25.45
2022-08-27T14:19:57.549Z,25.49
2022-08-27T14:23:05.160Z,25.55
2022-08-27T14:26:15.060Z,25.59
2022-08-27T14:29:21.375Z,25.65
2022-08-27T14:32:27.719Z,25.75
2022-08-27T14:35:39.628Z,25.88
2022-08-27T14:38:47.651Z,26.00
2022-08-27T14:41:54.591Z,26.11
2022-08-27T14:44:59.344Z,26.18
2022-08-27T14:48:06.968Z,26.24
2022-08-27T14:51:20.667Z,26.38
2022-08-27T14:54:29.095Z,26.50
2022-08-27T14:57:34.985Z,26.57
2022-08-27T15:00:39.984Z,26.72
2022-08-27T15:03:46.928Z,26.77
2022-08-27T15:06:52.693Z,26.83
2022-08-27T15:10:00.796Z,26.85
2022-08-27T15:13:07.920Z,26.94
2022-08-27T15:16:16.016Z,26.98
2022-08-27T15:19:22.643Z,27.06
2022-08-27T15:22:36.431Z,27.08
2022-08-27T15:25:43.496Z,27.19
2022-08-27T15:28:48.287Z,27.21
2022-08-27T15:31:56.698Z,27.26
2022-08-27T15:35:03.903Z,27.38
2022-08-27T15:38:11.168Z,27.44
2022-08-27T15:41:17.315Z,27.50
2022-08-27T15:44:24.114Z,27.59
2022-08-27T15:47:29.516Z,27.66
2022-08-27T15:50:35.510Z,27.75
2022-08-27T15:53:40.945Z,27.82
2022-08-27T15:56:46.921Z,27.87
2022-08-27T15:59:52.126Z,27.97
2022-08-27T16:02:58.523Z,28.06
2022-08-27T16:06:05.709Z,28.16
2022-08-27T16:09:11.309Z,28.28
2022-08-27T16:12:26.785Z,28.37
2022-08-27T16:15:27.157Z,28.48
2022-08-27T16:18:32.895Z,28.58
2022-08-27T16:21:32.253Z,28.67
2022-08-27T16:24:38.319Z,28.81
2022-08-27T16:27:43.966Z,28.92
2022-08-27T16:30:51.056Z,29.02
2022-08-27T16:33:57.498Z,29.14
2022-08-27T16:37:05.310Z,29.27
2022-08-27T16:40:15.403Z,29.41
2022-08-27T16:43:22.605Z,29.50
2022-08-27T16:46:28.278Z,29.67
2022-08-27T16:49:52.790Z,29.80
2022-08-27T16:52:58.955Z,29.94
2022-08-27T16:56:07.379Z,30.07
2022-08-27T16:59:14.931Z,30.21
2022-08-27T17:02:21.483Z,30.33
2022-08-27T17:05:33.955Z,30.44
2022-08-27T17:08:47.757Z,30.54
2022-08-27T17:11:47.053Z,30.65
2022-08-27T17:14:53.629Z,30.76
2022-08-27T17:18:02.201Z,30.92
2022-08-27T17:21:07.798Z,31.08
2022-08-27T17:24:15.278Z,31.32
2022-08-27T17:27:21.562Z,31.46
2022-08-27T17:30:29.822Z,31.70
2022-08-27T17:33:53.829Z,32.08
2022-08-27T17:37:00.991Z,32.36
2022-08-27T17:40:07.456Z,32.78
2022-08-27T17:43:14.471Z,33.25
2022-08-27T17:46:22.003Z,33.59
2022-08-27T17:49:28.344Z,33.95
2022-08-27T17:52:36.618Z,34.26
2022-08-27T17:55:42.367Z,34.76
2022-08-27T17:58:48.894Z,35.28
2022-08-27T18:01:57.219Z,35.79
2022-08-27T18:05:04.133Z,36.16
2022-08-27T18:08:10.292Z,36.51
2022-08-27T18:11:19.790Z,36.88
2022-08-27T18:14:25.522Z,37.21
2022-08-27T18:17:31.255Z,37.50
2022-08-27T18:20:40.756Z,37.89
2022-08-27T18:23:49.850Z,38.32
2022-08-27T18:26:57.944Z,38.74
2022-08-27T18:30:05.659Z,39.04
2022-08-27T18:33:11.806Z,39.41
2022-08-27T18:36:19.080Z,39.77
2022-08-27T18:39:25.756Z,40.18
2022-08-27T18:42:32.545Z,40.52
2022-08-27T18:45:43.862Z,40.77
2022-08-27T18:48:51.101Z,41.05
2022-08-27T18:52:00.489Z,41.29
2022-08-27T18:55:07.962Z,41.63
2022-08-27T18:58:14.329Z,41.96
2022-08-27T19:01:22.623Z,42.24
2022-08-27T19:04:28.938Z,42.55
2022-08-27T19:07:39.058Z,42.87
2022-08-27T19:10:43.767Z,43.16
2022-08-27T19:13:50.680Z,43.43
2022-08-27T19:17:05.474Z,43.72
2022-08-27T19:20:10.902Z,43.89
2022-08-27T19:23:16.078Z,44.05
2022-08-27T19:26:30.347Z,44.46
2022-08-27T19:29:36.814Z,44.72
2022-08-27T19:32:42.075Z,44.99
2022-08-27T19:35:52.366Z,45.16
2022-08-27T19:39:08.068Z,45.37
2022-08-27T19:42:16.552Z,45.60
2022-08-27T19:45:28.648Z,45.79
2022-08-27T19:48:35.840Z,46.09
2022-08-27T19:51:42.703Z,46.39
2022-08-27T19:55:10.235Z,46.66
2022-08-27T19:57:58.652Z,46.90
2022-08-27T20:01:05.079Z,47.06
2022-08-27T20:04:10.813Z,47.27
2022-08-27T20:07:15.975Z,47.50
2022-08-27T20:10:21.617Z,47.68
2022-08-27T20:13:33.020Z,47.91
2022-08-27T20:16:38.019Z,48.21
2022-08-27T20:19:47.717Z,48.43
2022-08-27T20:22:55.505Z,48.54
2022-08-27T20:26:01.678Z,48.67
2022-08-27T20:29:03.879Z,48.84
2022-08-27T20:32:03.740Z,48.97
2022-08-27T20:35:11.280Z,49.08
2022-08-27T20:38:16.836Z,49.34
2022-08-27T20:41:26.060Z,49.52
2022-08-27T20:44:32.429Z,49.69
2022-08-27T20:47:39.417Z,49.89
2022-08-27T20:50:46.695Z,50.06
2022-08-27T20:53:52.978Z,50.23
2022-08-27T20:56:59.543Z,50.35
2022-08-27T21:00:23.927Z,50.44
2022-08-27T21:03:31.031Z,50.59
2022-08-27T21:06:36.797Z,50.76
2022-08-27T21:09:55.447Z,50.87
2022-08-27T21:12:50.234Z,50.98
2022-08-27T21:15:56.916Z,51.20
2022-08-27T21:19:03.687Z,51.39
2022-08-27T21:22:08.816Z,51.53
2022-08-27T21:25:15.095Z,51.63
2022-08-27T21:28:22.172Z,51.74
2022-08-27T21:31:28.520Z,51.81
2022-08-27T21:34:35.338Z,51.82
2022-08-27T21:37:41.298Z,51.91
2022-08-27T21:40:46.880Z,51.99
2022-08-27T21:43:54.239Z,52.18
2022-08-27T21:47:00.811Z,52.26
2022-08-27T21:50:08.497Z,52.32
2022-08-27T21:53:14.257Z,52.46
2022-08-27T21:56:20.414Z,52.63
2022-08-27T21:59:26.974Z,52.74
2022-08-27T22:02:40.335Z,52.84
2022-08-27T22:05:45.157Z,52.82
2022-08-27T22:08:52.042Z,52.76
2022-08-27T22:11:59.418Z,52.82
2022-08-27T22:15:09.267Z,52.88
2022-08-27T22:18:15.837Z,52.95
2022-08-27T22:21:21.501Z,52.95
2022-08-27T22:24:27.881Z,53.00
2022-08-27T22:27:34.854Z,52.97
2022-08-27T22:30:41.852Z,53.00
2022-08-27T22:33:49.124Z,53.01
2022-08-27T22:36:56.819Z,53.01
2022-08-27T22:40:03.535Z,52.97
2022-08-27T22:43:10.378Z,53.03
2022-08-27T22:46:17.499Z,53.06
2022-08-27T22:49:24.032Z,53.07
2022-08-27T22:52:29.328Z,53.04
2022-08-27T22:55:38.000Z,53.03
2022-08-27T22:58:46.265Z,53.05
2022-08-27T23:01:55.268Z,53.10
2022-08-27T23:05:03.566Z,53.09
2022-08-27T23:08:09.053Z,53.07
2022-08-27T23:11:15.901Z,53.12
2022-08-27T23:14:22.789Z,53.17
2022-08-27T23:17:30.877Z,53.22
2022-08-27T23:20:37.857Z,53.19
2022-08-27T23:23:44.634Z,53.24
2022-08-27T23:27:08.631Z,53.25
2022-08-27T23:30:17.040Z,53.19
2022-08-27T23:33:17.842Z,53.21
2022-08-27T23:36:18.197Z,53.25
2022-08-27T23:39:23.857Z,53.28
2022-08-27T23:42:30.221Z,53.27
2022-08-27T23:45:40.584Z,53.31
2022-08-27T23:48:46.671Z,53.23
2022-08-27T23:51:52.290Z,53.30
2022-08-27T23:54:58.153Z,53.37
2022-08-27T23:58:04.677Z,53.32
